100LL.CA
Aviation Fuel Pricing for Canadians
Please upgrade your browser - Tested with IE9, FireFox, Chrome, Safari

Fuel Airports Other Help
Prices Economy Info List METAR/TAF Kneeboard Help

Enter a list of
Airport Idents:
Sort Method: As Entered    By Ident   

CYVR
METAR CYVR 250100Z 19005KT 160V220 30SM FEW040 FEW082 SCT092 BKN100 OVC250 10/06 A3015 RMK CU1AC1AC2AC4CS1 CU TR SLP212
TAF CYVR 242338Z 2500/2606 24005KT P6SM BKN090 OVC250 BECMG 2502/2504 VRB03KT FM250600 VRB03KT P6SM FEW080 BECMG 2506/2508 07005KT FM251300 04005KT P6SM BKN220 FM251900 27008KT P6SM SCT100 OVC160 FM260000 29008KT P6SM VCSH SCT050 OVC080 FM260300 24008KT P6SM -SHRA SCT020 OVC050 BECMG 2603/2605 11010KT RMK NXT FCST BY 250300Z
CYXX
METAR CYXX 250100Z 21008KT 15SM FEW030 BKN070 OVC210 12/05 A3015 RMK CU1AC4CI3 SLP213
TAF CYXX 242338Z 2500/2524 22008KT P6SM SCT070 BKN220 TEMPO 2500/2504 BKN070 OVC220 BECMG 2502/2504 VRB03KT FM250400 VRB03KT P6SM FEW050 SCT120 TEMPO 2504/2509 BKN050 FM251300 04008KT P6SM BKN220 FM251800 04010KT P6SM SCT100 OVC160 FM252300 04010KT P6SM VCSH FEW050 OVC080 RMK NXT FCST BY 250600Z
KBLI
METAR KBLI 250053Z COR 19005KT 10SM BKN075 11/04 A3016 RMK AO2 SLP220 T01110044
TAF KBLI 242321Z 2500/2524 VRB04KT P6SM SCT120 OVC250 FM250300 VRB03KT P6SM SCT250 FM251200 02004KT P6SM SCT250 FM251800 02006KT P6SM SCT120 BKN250


Please Send Updates!

Desktop Version ]  [ Mobile Version ]  [ Disclaimer ]